createdAt,value
2018-10-01T00:00:16.343Z,82.00
2018-10-01T00:02:45.315Z,81.30
2018-10-01T00:05:14.280Z,83.20
2018-10-01T00:07:43.288Z,81.80
2018-10-01T00:10:12.259Z,85.00
2018-10-01T00:12:41.162Z,85.80
2018-10-01T00:15:10.128Z,85.30
2018-10-01T00:17:40.164Z,85.30
2018-10-01T00:20:14.393Z,85.60
2018-10-01T00:22:48.703Z,85.20
2018-10-01T00:25:18.095Z,84.50
2018-10-01T00:27:47.475Z,84.80
2018-10-01T00:30:16.528Z,84.40
2018-10-01T00:32:45.527Z,85.10
2018-10-01T00:35:14.433Z,85.90
2018-10-01T00:37:43.390Z,86.40
2018-10-01T00:40:12.416Z,86.60
2018-10-01T00:42:42.131Z,87.60
2018-10-01T00:45:11.039Z,88.40
2018-10-01T00:47:40.583Z,89.00
2018-10-01T00:50:10.052Z,89.50
2018-10-01T00:52:38.934Z,89.20
2018-10-01T00:55:07.947Z,90.00
2018-10-01T00:57:36.802Z,91.10
2018-10-01T01:00:05.779Z,90.80
2018-10-01T01:02:34.813Z,91.10
2018-10-01T01:05:03.752Z,91.40
2018-10-01T01:07:32.639Z,91.50
2018-10-01T01:10:01.895Z,92.20
2018-10-01T01:12:31.289Z,91.60
2018-10-01T01:15:00.143Z,92.10
2018-10-01T01:17:29.590Z,92.20
2018-10-01T01:19:58.525Z,92.30
2018-10-01T01:22:27.473Z,91.90
2018-10-01T01:24:56.854Z,91.80
2018-10-01T01:27:25.873Z,92.00
2018-10-01T01:29:54.761Z,91.80
2018-10-01T01:32:23.699Z,91.70
2018-10-01T01:34:52.567Z,92.40
2018-10-01T01:37:21.415Z,92.40
2018-10-01T01:39:50.407Z,91.80
2018-10-01T01:42:19.327Z,92.80
2018-10-01T01:44:48.236Z,93.00
2018-10-01T01:47:17.195Z,93.40
2018-10-01T01:49:46.090Z,94.30
2018-10-01T01:52:14.999Z,95.30
2018-10-01T01:54:43.939Z,94.40
2018-10-01T01:57:12.819Z,93.90
2018-10-01T01:59:41.727Z,93.70
2018-10-01T02:02:10.729Z,93.60
2018-10-01T02:04:39.611Z,94.30
2018-10-01T02:07:08.554Z,95.40
2018-10-01T02:09:37.498Z,94.60
2018-10-01T02:12:07.012Z,95.20
2018-10-01T02:14:35.903Z,95.80
2018-10-01T02:17:05.247Z,96.70
2018-10-01T02:19:34.661Z,95.90
2018-10-01T02:22:03.569Z,95.10
2018-10-01T02:24:32.967Z,94.20
2018-10-01T02:27:01.885Z,95.40
2018-10-01T02:29:30.783Z,97.00
2018-10-01T02:31:59.706Z,97.70
2018-10-01T02:34:28.639Z,98.20
2018-10-01T02:36:57.595Z,98.50
2018-10-01T02:39:26.507Z,98.80
2018-10-01T02:41:56.374Z,99.20
2018-10-01T02:44:25.593Z,99.30
2018-10-01T02:46:54.808Z,99.80
2018-10-01T02:49:24.276Z,99.90
2018-10-01T02:51:58.955Z,99.10
2018-10-01T02:54:30.729Z,99.90
2018-10-01T02:57:00.674Z,99.90
2018-10-01T02:59:30.087Z,99.90
2018-10-01T03:01:58.995Z,99.60
2018-10-01T03:04:28.642Z,99.00
2018-10-01T03:06:57.592Z,99.10
2018-10-01T03:09:26.478Z,97.80
2018-10-01T03:11:55.958Z,98.20
2018-10-01T03:14:25.377Z,98.40
2018-10-01T03:16:54.235Z,98.60
2018-10-01T03:19:23.219Z,98.70
2018-10-01T03:21:52.099Z,99.70
2018-10-01T03:24:21.446Z,99.90
2018-10-01T03:26:50.371Z,99.90
2018-10-01T03:29:19.265Z,99.90
2018-10-01T03:31:48.420Z,99.90
2018-10-01T03:34:17.367Z,99.90
2018-10-01T03:36:46.255Z,99.90
2018-10-01T03:39:15.176Z,99.90
2018-10-01T03:41:44.175Z,99.90
2018-10-01T03:44:13.059Z,99.90
2018-10-01T03:46:41.998Z,99.90
2018-10-01T03:49:10.943Z,99.90
2018-10-01T03:51:39.834Z,99.90
2018-10-01T03:54:08.745Z,99.90
2018-10-01T03:56:37.679Z,99.90
2018-10-01T03:59:06.547Z,99.90
2018-10-01T04:01:35.455Z,99.90
2018-10-01T04:04:04.425Z,99.90
2018-10-01T04:06:33.792Z,99.90
2018-10-01T04:09:02.758Z,99.90
2018-10-01T04:11:31.727Z,99.90
2018-10-01T04:14:00.608Z,99.90
2018-10-01T04:16:30.105Z,99.90
2018-10-01T04:18:59.068Z,99.90
2018-10-01T04:21:28.029Z,99.90
2018-10-01T04:23:56.920Z,99.90
2018-10-01T04:26:25.847Z,99.90
2018-10-01T04:28:54.731Z,99.90
2018-10-01T04:31:23.601Z,99.90
2018-10-01T04:33:52.700Z,99.90
2018-10-01T04:36:21.761Z,99.90
2018-10-01T04:38:50.703Z,99.90
2018-10-01T04:41:19.645Z,99.90
2018-10-01T04:43:48.508Z,99.90
2018-10-01T04:46:17.375Z,99.90
2018-10-01T04:48:46.305Z,99.90
2018-10-01T04:51:15.158Z,99.90
2018-10-01T04:53:44.033Z,99.90
2018-10-01T04:56:12.970Z,99.90
2018-10-01T04:58:42.803Z,99.90
2018-10-01T05:01:12.024Z,99.90
2018-10-01T05:03:40.970Z,99.90
2018-10-01T05:06:09.939Z,99.90
2018-10-01T05:08:38.832Z,99.90
2018-10-01T05:11:07.816Z,99.90
2018-10-01T05:13:36.691Z,99.90
2018-10-01T05:16:05.654Z,99.90
2018-10-01T05:18:34.844Z,99.90
2018-10-01T05:21:04.275Z,99.90
2018-10-01T05:23:33.231Z,99.90
2018-10-01T05:26:02.342Z,99.90
2018-10-01T05:28:31.235Z,99.90
2018-10-01T05:31:00.165Z,99.70
2018-10-01T05:33:29.133Z,99.30
2018-10-01T05:35:58.791Z,98.60
2018-10-01T05:38:27.695Z,98.50
2018-10-01T05:40:56.636Z,98.30
2018-10-01T05:43:25.509Z,97.90
2018-10-01T05:45:55.031Z,97.10
2018-10-01T05:48:23.959Z,97.20
2018-10-01T05:50:52.853Z,96.90
2018-10-01T05:53:21.702Z,95.70
2018-10-01T05:55:50.750Z,94.80
2018-10-01T05:58:19.707Z,93.30
2018-10-01T06:00:48.579Z,94.50
2018-10-01T06:03:17.739Z,93.90
2018-10-01T06:05:46.639Z,95.10
2018-10-01T06:08:15.564Z,83.70
2018-10-01T06:10:44.562Z,50.60
2018-10-01T06:13:13.581Z,38.80
2018-10-01T06:15:42.478Z,32.20
2018-10-01T06:18:11.400Z,27.90
2018-10-01T06:20:40.296Z,26.00
2018-10-01T06:23:09.672Z,25.20
2018-10-01T06:25:39.136Z,24.40
2018-10-01T06:28:08.045Z,24.40
2018-10-01T06:30:36.952Z,24.10
2018-10-01T06:33:05.932Z,24.20
2018-10-01T06:35:34.913Z,25.30
2018-10-01T06:38:04.330Z,24.50
2018-10-01T06:40:33.181Z,26.40
2018-10-01T06:43:02.057Z,27.80
2018-10-01T06:45:31.423Z,25.80
2018-10-01T06:48:00.372Z,23.60
2018-10-01T06:50:29.268Z,21.80
2018-10-01T06:52:58.125Z,21.30
2018-10-01T06:55:27.246Z,20.80
2018-10-01T06:57:56.138Z,20.30
2018-10-01T07:00:25.065Z,19.50
2018-10-01T07:02:54.053Z,18.50
2018-10-01T07:05:22.967Z,17.30
2018-10-01T07:07:51.912Z,14.80
2018-10-01T07:10:20.874Z,13.80
2018-10-01T07:12:49.804Z,13.30
2018-10-01T07:15:18.706Z,13.50
2018-10-01T07:17:47.697Z,12.50
2018-10-01T07:20:16.606Z,11.40
2018-10-01T07:22:45.528Z,11.30
2018-10-01T07:25:14.450Z,10.30
2018-10-01T07:27:43.320Z,10.70
2018-10-01T07:30:12.182Z,10.80
2018-10-01T07:32:41.120Z,10.10
2018-10-01T07:35:09.999Z,9.10
2018-10-01T07:37:38.875Z,8.40
2018-10-01T07:40:07.807Z,8.10
2018-10-01T07:42:36.687Z,7.80
2018-10-01T07:45:05.996Z,7.40
2018-10-01T07:47:34.952Z,6.40
2018-10-01T07:50:04.053Z,6.50
2018-10-01T07:52:32.959Z,5.90
2018-10-01T07:55:01.899Z,5.90
2018-10-01T07:57:30.840Z,5.80
2018-10-01T07:59:59.883Z,5.30
2018-10-01T08:02:28.713Z,4.40
2018-10-01T08:04:57.785Z,3.90
2018-10-01T08:07:26.689Z,3.80
2018-10-01T08:09:55.604Z,4.00
2018-10-01T08:12:24.523Z,4.10
2018-10-01T08:14:53.410Z,3.90
2018-10-01T08:17:22.399Z,4.10
2018-10-01T08:19:51.334Z,3.70
2018-10-01T08:22:20.202Z,3.50
2018-10-01T08:24:49.138Z,3.20
2018-10-01T08:27:18.020Z,3.00
2018-10-01T08:29:46.984Z,3.30
2018-10-01T08:32:16.183Z,3.30
2018-10-01T08:34:44.987Z,3.10
2018-10-01T08:37:13.865Z,3.20
2018-10-01T08:39:42.795Z,3.40
2018-10-01T08:42:11.654Z,4.10
2018-10-01T08:44:40.521Z,3.60
2018-10-01T08:47:09.593Z,3.40
2018-10-01T08:49:59.202Z,4.60
2018-10-01T08:52:30.753Z,5.70
2018-10-01T08:54:59.786Z,6.40
2018-10-01T08:57:28.831Z,6.50
2018-10-01T08:59:57.846Z,6.00
2018-10-01T09:02:26.910Z,6.10
2018-10-01T09:04:55.951Z,6.40
2018-10-01T09:07:24.971Z,6.90
2018-10-01T09:09:54.020Z,8.60
2018-10-01T09:12:23.138Z,11.20
2018-10-01T09:14:52.231Z,14.00
2018-10-01T09:17:21.280Z,17.00
2018-10-01T09:19:50.258Z,19.20
2018-10-01T09:22:19.318Z,21.20
2018-10-01T09:24:48.513Z,22.30
2018-10-01T09:27:17.568Z,23.40
2018-10-01T09:29:46.629Z,23.10
2018-10-01T09:32:15.643Z,23.10
2018-10-01T09:34:44.647Z,23.70
2018-10-01T09:37:13.774Z,23.60
2018-10-01T09:39:42.779Z,24.10
2018-10-01T09:42:11.886Z,24.40
2018-10-01T09:44:40.901Z,25.00
2018-10-01T09:47:09.920Z,25.00
2018-10-01T09:49:39.095Z,25.60
2018-10-01T09:52:08.293Z,25.60
2018-10-01T09:54:37.269Z,26.20
2018-10-01T09:57:06.244Z,26.60
2018-10-01T09:59:35.250Z,26.20
2018-10-01T10:02:04.242Z,26.00
2018-10-01T10:04:33.414Z,26.50
2018-10-01T10:07:02.612Z,26.80
2018-10-01T10:09:31.616Z,27.30
2018-10-01T10:12:00.575Z,28.30
2018-10-01T10:14:29.698Z,28.30
2018-10-01T10:16:58.818Z,28.70
2018-10-01T10:19:27.749Z,27.80
2018-10-01T10:21:56.832Z,28.10
2018-10-01T10:24:25.809Z,27.70
2018-10-01T10:26:54.798Z,27.90
2018-10-01T10:29:23.870Z,28.20
2018-10-01T10:31:52.844Z,28.30
2018-10-01T10:34:21.914Z,28.40
2018-10-01T10:36:50.974Z,28.10
2018-10-01T10:39:20.019Z,25.40
2018-10-01T10:41:49.056Z,25.40
2018-10-01T10:44:18.185Z,26.00
2018-10-01T10:46:47.392Z,26.10
2018-10-01T10:49:16.387Z,25.90
2018-10-01T10:51:45.433Z,26.50
2018-10-01T10:54:14.389Z,26.40
2018-10-01T10:56:43.386Z,26.30
2018-10-01T10:59:12.857Z,26.60
2018-10-01T11:01:42.247Z,26.40
2018-10-01T11:04:11.210Z,27.30
2018-10-01T11:06:40.304Z,26.80
2018-10-01T11:09:10.729Z,26.90
2018-10-01T11:11:39.841Z,27.10
2018-10-01T11:14:09.877Z,27.50
2018-10-01T11:16:38.914Z,27.80
2018-10-01T11:19:08.150Z,28.30
2018-10-01T11:21:37.214Z,27.00
2018-10-01T11:24:06.233Z,27.50
2018-10-01T11:26:35.201Z,27.80
2018-10-01T11:29:04.455Z,27.60
2018-10-01T11:31:33.746Z,26.70
2018-10-01T11:34:02.917Z,26.80
2018-10-01T11:36:32.066Z,26.70
2018-10-01T11:39:01.072Z,26.50
2018-10-01T11:41:30.100Z,26.10
2018-10-01T11:43:59.154Z,25.80
2018-10-01T11:46:28.265Z,25.50
2018-10-01T11:48:58.298Z,25.20
2018-10-01T11:51:27.715Z,25.50
2018-10-01T11:53:56.994Z,24.80
2018-10-01T11:56:26.277Z,24.10
2018-10-01T11:58:55.694Z,24.50
2018-10-01T12:01:25.059Z,24.80
2018-10-01T12:03:54.427Z,25.30
2018-10-01T12:06:23.739Z,25.00
2018-10-01T12:08:52.822Z,24.50
2018-10-01T12:11:22.285Z,24.30
2018-10-01T12:13:51.679Z,25.50
2018-10-01T12:16:20.628Z,24.90
2018-10-01T12:18:49.564Z,24.00
2018-10-01T12:21:18.640Z,24.50
2018-10-01T12:23:47.614Z,24.90
2018-10-01T12:26:16.664Z,24.70
2018-10-01T12:28:45.745Z,25.10
2018-10-01T12:31:15.194Z,25.00
2018-10-01T12:33:44.375Z,25.70
2018-10-01T12:36:13.498Z,25.30
2018-10-01T12:38:42.546Z,25.70
2018-10-01T12:41:11.919Z,26.00
2018-10-01T12:43:41.035Z,25.80
2018-10-01T12:46:10.120Z,26.30
2018-10-01T12:48:39.205Z,25.50
2018-10-01T12:51:08.409Z,25.70
2018-10-01T12:53:38.099Z,26.60
2018-10-01T12:56:07.548Z,26.60
2018-10-01T12:58:36.842Z,26.70
2018-10-01T13:01:06.308Z,26.90
2018-10-01T13:03:35.491Z,27.20
2018-10-01T13:06:04.626Z,27.10
2018-10-01T13:08:33.707Z,27.00
2018-10-01T13:11:03.182Z,26.70
2018-10-01T13:13:32.823Z,28.00
2018-10-01T13:16:02.161Z,27.30
2018-10-01T13:18:31.323Z,27.30
2018-10-01T13:21:00.797Z,27.50
2018-10-01T13:23:30.020Z,27.00
2018-10-01T13:25:59.235Z,25.50
2018-10-01T13:28:28.885Z,24.70
2018-10-01T13:30:58.017Z,25.70
2018-10-01T13:33:27.042Z,24.40
2018-10-01T13:35:56.077Z,24.50
2018-10-01T13:38:25.113Z,24.50
2018-10-01T13:40:54.120Z,23.80
2018-10-01T13:43:23.165Z,23.70
2018-10-01T13:45:52.227Z,23.90
2018-10-01T13:48:21.393Z,24.40
2018-10-01T13:50:50.446Z,23.90
2018-10-01T13:53:19.415Z,24.40
2018-10-01T13:55:48.428Z,24.20
2018-10-01T13:58:17.749Z,24.10
2018-10-01T14:00:46.988Z,24.00
2018-10-01T14:03:16.203Z,24.40
2018-10-01T14:05:45.278Z,25.20
2018-10-01T14:08:14.331Z,25.40
2018-10-01T14:10:43.926Z,25.60
2018-10-01T14:13:13.056Z,25.50
2018-10-01T14:15:41.989Z,24.80
2018-10-01T14:18:12.383Z,25.00
2018-10-01T14:20:41.605Z,25.00
2018-10-01T14:23:10.773Z,25.20
2018-10-01T14:25:40.077Z,25.30
2018-10-01T14:28:09.365Z,25.40
2018-10-01T14:30:38.391Z,26.00
2018-10-01T14:33:07.663Z,25.30
2018-10-01T14:35:36.829Z,25.20
2018-10-01T14:38:05.818Z,25.10
2018-10-01T14:40:34.810Z,26.60
2018-10-01T14:43:03.852Z,27.80
2018-10-01T14:45:32.854Z,29.00
2018-10-01T14:48:01.875Z,30.10
2018-10-01T14:50:30.942Z,31.00
2018-10-01T14:52:59.910Z,31.90
2018-10-01T14:55:28.977Z,32.30
2018-10-01T14:57:57.997Z,33.20
2018-10-01T15:00:27.459Z,33.30
2018-10-01T15:02:56.601Z,32.90
2018-10-01T15:05:25.971Z,33.70
2018-10-01T15:07:55.330Z,33.90
2018-10-01T15:10:24.430Z,34.30
2018-10-01T15:12:53.578Z,34.70
2018-10-01T15:15:22.557Z,35.40
2018-10-01T15:17:51.845Z,36.90
2018-10-01T15:20:21.241Z,37.10
2018-10-01T15:22:50.340Z,37.50
2018-10-01T15:25:19.328Z,37.00
2018-10-01T15:27:48.626Z,38.40
2018-10-01T15:30:17.664Z,37.90
2018-10-01T15:32:46.613Z,38.40
2018-10-01T15:35:15.689Z,39.60
2018-10-01T15:37:44.652Z,40.60
2018-10-01T15:40:13.895Z,41.90
2018-10-01T15:42:43.175Z,42.10
2018-10-01T15:45:12.476Z,43.00
2018-10-01T15:47:41.410Z,43.80
2018-10-01T15:50:10.497Z,43.10
2018-10-01T15:52:39.565Z,43.60
2018-10-01T15:55:08.528Z,44.70
2018-10-01T15:57:37.558Z,45.10
2018-10-01T16:00:06.558Z,45.40
2018-10-01T16:02:36.143Z,46.00
2018-10-01T16:05:05.787Z,47.40
2018-10-01T16:07:35.002Z,48.00
2018-10-01T16:10:04.386Z,48.60
2018-10-01T16:12:33.498Z,49.70
2018-10-01T16:15:02.863Z,51.80
2018-10-01T16:17:32.365Z,50.90
2018-10-01T16:20:01.461Z,51.90
2018-10-01T16:22:30.402Z,52.30
2018-10-01T16:25:00.016Z,52.60
2018-10-01T16:27:29.106Z,54.20
2018-10-01T16:29:58.462Z,54.30
2018-10-01T16:32:27.606Z,55.80
2018-10-01T16:34:56.696Z,55.50
2018-10-01T16:37:25.712Z,57.30
2018-10-01T16:39:54.761Z,57.50
2018-10-01T16:42:23.914Z,58.70
2018-10-01T16:44:53.161Z,57.60
2018-10-01T16:47:22.370Z,57.20
2018-10-01T16:49:51.741Z,57.40
2018-10-01T16:52:21.136Z,56.70
2018-10-01T16:54:50.464Z,55.50
2018-10-01T16:57:19.590Z,56.10
2018-10-01T16:59:48.554Z,56.60
2018-10-01T17:02:17.541Z,56.70
2018-10-01T17:04:46.737Z,57.00
2018-10-01T17:07:15.738Z,58.20
2018-10-01T17:09:44.744Z,58.10
2018-10-01T17:12:15.042Z,57.70
2018-10-01T17:14:44.045Z,58.00
2018-10-01T17:17:13.086Z,57.90
2018-10-01T17:19:42.275Z,59.20
2018-10-01T17:22:11.618Z,59.10
2018-10-01T17:24:40.580Z,59.50
2018-10-01T17:27:23.212Z,59.60
2018-10-01T17:30:05.358Z,59.60
2018-10-01T17:32:34.575Z,59.10
2018-10-01T17:35:03.581Z,59.70
2018-10-01T17:37:32.704Z,60.00
2018-10-01T17:40:01.983Z,60.70
2018-10-01T17:42:32.410Z,61.30
2018-10-01T17:45:01.519Z,62.40
2018-10-01T17:47:30.638Z,63.00
2018-10-01T17:49:59.727Z,64.00
2018-10-01T17:52:29.024Z,64.10
2018-10-01T17:54:58.157Z,64.90
2018-10-01T17:57:27.246Z,65.20
2018-10-01T17:59:56.283Z,65.30
2018-10-01T18:02:25.402Z,66.60
2018-10-01T18:04:54.397Z,66.50
2018-10-01T18:07:23.482Z,66.20
2018-10-01T18:09:53.870Z,66.30
2018-10-01T18:12:22.888Z,67.00
2018-10-01T18:14:52.565Z,66.70
2018-10-01T18:17:21.669Z,66.90
2018-10-01T18:19:50.661Z,66.80
2018-10-01T18:22:19.937Z,66.50
2018-10-01T18:24:48.962Z,67.10
2018-10-01T18:27:18.014Z,67.00
2018-10-01T18:29:47.049Z,67.40
2018-10-01T18:32:16.193Z,67.80
2018-10-01T18:34:45.525Z,68.10
2018-10-01T18:37:14.572Z,67.60
2018-10-01T18:39:43.629Z,68.00
2018-10-01T18:42:12.676Z,68.40
2018-10-01T18:44:41.759Z,68.40
2018-10-01T18:47:10.897Z,69.70
2018-10-01T18:49:40.054Z,69.60
2018-10-01T18:52:09.031Z,70.40
2018-10-01T18:54:38.107Z,70.40
2018-10-01T18:57:07.210Z,70.30
2018-10-01T18:59:36.255Z,69.80
2018-10-01T19:02:05.722Z,69.30
2018-10-01T19:04:34.720Z,70.30
2018-10-01T19:07:03.761Z,71.00
2018-10-01T19:09:32.954Z,71.40
2018-10-01T19:12:03.093Z,71.70
2018-10-01T19:14:32.070Z,71.50
2018-10-01T19:17:01.174Z,71.50
2018-10-01T19:19:30.204Z,72.10
2018-10-01T19:21:59.190Z,71.70
2018-10-01T19:24:28.347Z,72.30
2018-10-01T19:26:57.612Z,72.10
2018-10-01T19:29:27.010Z,72.50
2018-10-01T19:31:56.077Z,74.00
2018-10-01T19:34:25.126Z,74.90
2018-10-01T19:36:54.197Z,75.60
2018-10-01T19:39:23.507Z,76.30
2018-10-01T19:41:52.502Z,76.10
2018-10-01T19:44:21.560Z,76.90
2018-10-01T19:46:51.118Z,78.40
2018-10-01T19:49:21.214Z,79.80
2018-10-01T19:51:50.647Z,81.40
2018-10-01T19:57:16.116Z,83.10
2018-10-01T19:59:45.840Z,84.70
2018-10-01T20:02:15.208Z,86.80
2018-10-01T20:04:45.243Z,88.50
2018-10-01T20:07:14.775Z,90.00
2018-10-01T20:09:45.087Z,90.50
2018-10-01T20:12:15.587Z,91.00
2018-10-01T20:14:45.737Z,91.60
2018-10-01T20:17:15.606Z,92.60
2018-10-01T20:19:45.422Z,92.90
2018-10-01T20:22:15.524Z,93.70
2018-10-01T20:24:45.222Z,94.00
2018-10-01T20:27:14.218Z,94.50
2018-10-01T20:29:43.241Z,95.40
2018-10-01T20:32:12.345Z,97.10
2018-10-01T20:34:41.845Z,98.90
2018-10-01T20:37:15.807Z,99.70
2018-10-01T20:39:46.391Z,99.90
2018-10-01T20:42:16.132Z,99.90
2018-10-01T20:44:48.673Z,99.90
2018-10-01T20:47:21.852Z,99.90
2018-10-01T20:49:51.951Z,99.90
2018-10-01T20:52:21.847Z,99.90
2018-10-01T20:54:51.454Z,99.90
2018-10-01T20:57:22.091Z,99.90
2018-10-01T20:59:52.616Z,99.90
2018-10-01T21:02:22.291Z,99.90
2018-10-01T21:04:51.793Z,99.90
2018-10-01T21:07:20.921Z,99.90
2018-10-01T21:09:50.783Z,99.90
2018-10-01T21:12:20.111Z,99.90
2018-10-01T21:14:49.881Z,99.90
2018-10-01T21:17:20.100Z,99.90
2018-10-01T21:19:49.668Z,99.90
2018-10-01T21:22:19.310Z,99.90
2018-10-01T21:24:49.801Z,99.90
2018-10-01T21:27:19.162Z,99.90
2018-10-01T21:29:48.355Z,99.90
2018-10-01T21:32:19.034Z,99.90
2018-10-01T21:34:48.415Z,99.90
2018-10-01T21:37:17.986Z,99.90
2018-10-01T21:40:05.182Z,99.90
2018-10-01T21:42:34.335Z,99.90
2018-10-01T21:45:03.810Z,99.90
2018-10-01T21:47:33.765Z,99.90
2018-10-01T21:50:03.665Z,99.90
2018-10-01T21:52:32.730Z,99.90
2018-10-01T21:55:01.914Z,99.90
2018-10-01T21:57:31.798Z,99.90
2018-10-01T22:00:00.771Z,99.90
2018-10-01T22:02:30.750Z,99.90
2018-10-01T22:04:59.721Z,99.90
2018-10-01T22:07:29.209Z,99.90
2018-10-01T22:09:58.605Z,99.90
2018-10-01T22:12:27.808Z,99.90
2018-10-01T22:14:56.858Z,99.90
2018-10-01T22:17:26.028Z,99.90
2018-10-01T22:19:55.090Z,99.90
2018-10-01T22:22:24.756Z,99.90
2018-10-01T22:24:53.931Z,99.90
2018-10-01T22:27:23.010Z,99.90
2018-10-01T22:29:52.044Z,99.90
2018-10-01T22:32:21.133Z,99.90
2018-10-01T22:34:50.155Z,99.90
2018-10-01T22:37:19.160Z,99.90
2018-10-01T22:39:48.576Z,99.90
2018-10-01T22:42:17.563Z,99.90
2018-10-01T22:44:46.720Z,99.90
2018-10-01T22:47:16.186Z,99.90
2018-10-01T22:49:45.296Z,99.90
2018-10-01T22:52:14.353Z,99.90
2018-10-01T22:54:43.441Z,99.90
2018-10-01T22:57:12.688Z,99.90
2018-10-01T22:59:41.699Z,99.90
2018-10-01T23:02:10.771Z,99.90
2018-10-01T23:04:39.819Z,99.90
2018-10-01T23:07:08.811Z,99.90
2018-10-01T23:09:37.940Z,99.90
2018-10-01T23:12:07.018Z,99.90
2018-10-01T23:14:36.054Z,99.90
2018-10-01T23:17:05.160Z,99.90
2018-10-01T23:19:34.284Z,99.90
2018-10-01T23:22:03.952Z,99.90
2018-10-01T23:24:33.091Z,99.90
2018-10-01T23:27:02.917Z,99.90
2018-10-01T23:29:33.576Z,99.90
2018-10-01T23:32:02.608Z,99.90
2018-10-01T23:34:31.655Z,99.90
2018-10-01T23:37:01.032Z,99.90
2018-10-01T23:39:31.217Z,99.90
2018-10-01T23:42:00.633Z,99.90
2018-10-01T23:44:29.811Z,99.90
2018-10-01T23:46:58.857Z,99.90
2018-10-01T23:49:28.009Z,99.90
2018-10-01T23:51:57.918Z,99.90
2018-10-01T23:54:27.158Z,99.90
2018-10-01T23:56:56.232Z,99.90
2018-10-01T23:59:26.184Z,99.90
